Time;durP1;ratioP1;P1;durP2;ratioP2;P2;SDS_P1;SDS_P2;PMS_P1;PMS_P2;Temp;Humidity;BMP_temperature;BMP_pressure;BME280_temperature;BME280_humidity;BME280_pressure;Samples;Min_cycle;Max_cycle;Signal;HPM_P1;HPM_P2
2022/01/13 00:00:55;;;;;;;53.60;21.33;;;-9.20;99.90;;;;;;4124634;28;20089;-66
2022/01/13 00:02:57;;;;;;;62.35;21.80;;;-9.20;99.90;;;;;;4125274;28;20042;-57
2022/01/13 00:04:58;;;;;;;42.38;17.90;;;-9.20;99.90;;;;;;4125456;28;20023;-58
2022/01/13 00:06:59;;;;;;;46.45;19.20;;;-9.20;99.90;;;;;;4125542;28;20042;-55
2022/01/13 00:09:00;;;;;;;44.83;18.17;;;-9.20;99.90;;;;;;4125252;28;20474;-59
2022/01/13 00:11:01;;;;;;;42.92;16.80;;;-9.20;99.90;;;;;;4124740;28;20096;-59
2022/01/13 00:13:08;;;;;;;43.33;16.25;;;-9.20;99.90;;;;;;4124770;28;20502;-60
2022/01/13 00:15:22;;;;;;;42.03;17.48;;;-9.20;99.90;;;;;;4125485;28;20038;-59
2022/01/13 00:17:32;;;;;;;39.88;17.10;;;-9.20;99.90;;;;;;4125032;28;20053;-59
2022/01/13 00:19:46;;;;;;;44.22;16.75;;;-9.20;99.90;;;;;;4123960;28;20058;-58
2022/01/13 00:21:57;;;;;;;42.60;16.55;;;-9.10;99.90;;;;;;4125186;28;20100;-58
2022/01/13 00:24:01;;;;;;;44.55;17.80;;;-9.10;99.90;;;;;;4125258;28;20085;-58
2022/01/13 00:26:08;;;;;;;45.35;17.77;;;-9.10;99.90;;;;;;4125326;28;20057;-58
2022/01/13 00:28:20;;;;;;;46.65;17.75;;;-9.10;99.90;;;;;;4125176;28;20034;-59
2022/01/13 00:30:21;;;;;;;42.05;16.33;;;-9.10;99.90;;;;;;4124982;28;20482;-60
2022/01/13 00:32:26;;;;;;;39.45;17.02;;;-9.00;99.90;;;;;;4125095;28;20094;-60
2022/01/13 00:34:27;;;;;;;50.22;18.00;;;-9.00;99.90;;;;;;4124614;28;20093;-63
2022/01/13 00:36:37;;;;;;;47.08;17.92;;;-9.00;99.90;;;;;;4124835;28;20034;-59
2022/01/13 00:38:39;;;;;;;42.58;17.67;;;-9.00;99.90;;;;;;4124961;28;20085;-59
2022/01/13 00:40:40;;;;;;;48.55;19.10;;;-9.00;99.90;;;;;;4125122;28;20487;-59
2022/01/13 00:42:41;;;;;;;51.33;21.00;;;-9.00;99.90;;;;;;4124661;28;20042;-58
2022/01/13 00:44:45;;;;;;;97.85;30.83;;;-9.00;99.90;;;;;;4140727;28;20431;-57
2022/01/13 00:46:58;;;;;;;142.10;42.50;;;-9.00;99.90;;;;;;4140422;28;20793;-66
2022/01/13 00:49:00;;;;;;;137.23;42.85;;;-9.00;99.90;;;;;;4141180;28;20149;-60
2022/01/13 00:51:01;;;;;;;172.02;54.50;;;-9.10;99.90;;;;;;4140859;28;20548;-61
2022/01/13 00:53:03;;;;;;;134.90;45.70;;;-9.10;99.90;;;;;;4141250;28;20108;-59
2022/01/13 00:55:09;;;;;;;89.35;34.65;;;-9.20;99.90;;;;;;4140553;28;20099;-60
2022/01/13 00:57:10;;;;;;;86.00;34.53;;;-9.20;99.90;;;;;;4140868;28;20018;-56
2022/01/13 00:59:13;;;;;;;77.15;33.90;;;-9.20;99.90;;;;;;4140595;28;20092;-57
2022/01/13 01:01:14;;;;;;;66.85;27.02;;;-9.20;99.90;;;;;;4140843;28;20061;-56
2022/01/13 01:03:18;;;;;;;66.65;27.83;;;-9.20;99.90;;;;;;4140924;28;20057;-59
2022/01/13 01:05:22;;;;;;;56.75;25.23;;;-9.20;99.90;;;;;;4140679;28;20075;-59
2022/01/13 01:07:23;;;;;;;55.25;22.67;;;-9.30;99.90;;;;;;4140937;28;20042;-58
2022/01/13 01:09:40;;;;;;;55.00;22.45;;;-9.30;99.90;;;;;;4141219;28;20096;-59
2022/01/13 01:11:44;;;;;;;49.70;20.35;;;-9.30;99.90;;;;;;4140774;28;20045;-60
2022/01/13 01:13:48;;;;;;;42.08;18.42;;;-9.30;99.90;;;;;;4140604;28;20084;-62
2022/01/13 01:15:54;;;;;;;46.38;20.95;;;-9.30;99.90;;;;;;4139996;28;20083;-58
2022/01/13 01:18:02;;;;;;;47.70;20.63;;;-9.30;99.90;;;;;;4140521;28;20046;-56
2022/01/13 01:20:07;;;;;;;53.47;20.65;;;-9.30;99.90;;;;;;4141103;28;20042;-55
2022/01/13 01:24:54;;;;;;;45.53;18.95;;;-9.40;99.90;;;;;;4140428;28;20034;-57
2022/01/13 01:27:00;;;;;;;51.78;19.63;;;-9.40;99.90;;;;;;4140420;28;20518;-59
2022/01/13 01:29:16;;;;;;;52.38;20.67;;;-9.50;99.90;;;;;;4140219;28;20425;-60
2022/01/13 01:31:25;;;;;;;53.83;19.77;;;-9.60;99.90;;;;;;4140141;28;20030;-61
2022/01/13 01:33:26;;;;;;;49.40;20.42;;;-9.70;99.90;;;;;;4140569;28;20623;-60
2022/01/13 01:35:28;;;;;;;48.08;19.33;;;-9.80;99.90;;;;;;4140615;28;20033;-60
2022/01/13 01:37:30;;;;;;;47.38;18.60;;;-9.80;99.90;;;;;;4140508;28;20400;-58
2022/01/13 01:39:31;;;;;;;41.97;15.93;;;-9.90;99.90;;;;;;4140738;28;20060;-59
2022/01/13 01:41:36;;;;;;;39.92;16.50;;;-9.90;99.90;;;;;;4140315;28;20041;-64
2022/01/13 01:43:37;;;;;;;41.13;15.70;;;-10.00;99.90;;;;;;4140142;28;20556;-59
2022/01/13 01:45:44;;;;;;;39.38;15.85;;;-10.00;99.90;;;;;;4139969;28;20030;-60
2022/01/13 01:47:49;;;;;;;46.83;17.40;;;-10.00;99.90;;;;;;4140052;28;20038;-58
2022/01/13 01:49:57;;;;;;;50.17;18.73;;;-10.00;99.90;;;;;;4140724;28;20793;-60
2022/01/13 01:52:00;;;;;;;45.40;16.95;;;-10.00;99.90;;;;;;4139975;28;20151;-60
2022/01/13 01:54:01;;;;;;;36.30;15.38;;;-9.90;99.90;;;;;;4140522;28;20096;-57
2022/01/13 01:56:02;;;;;;;40.70;14.50;;;-9.90;99.90;;;;;;4139548;28;20038;-60
2022/01/13 01:58:04;;;;;;;34.22;14.77;;;-9.90;99.90;;;;;;4138990;28;20042;-60
2022/01/13 02:00:09;;;;;;;35.55;16.08;;;-9.90;99.90;;;;;;4139113;28;20030;-57
2022/01/13 02:02:14;;;;;;;41.90;16.45;;;-9.80;99.90;;;;;;4140075;28;20104;-57
2022/01/13 02:04:17;;;;;;;38.58;16.17;;;-9.80;99.90;;;;;;4139442;28;20127;-59
2022/01/13 02:06:19;;;;;;;47.67;15.88;;;-9.80;99.90;;;;;;4140159;28;20033;-60
2022/01/13 02:08:20;;;;;;;49.67;18.08;;;-9.80;99.90;;;;;;4139540;28;20835;-59
2022/01/13 02:10:21;;;;;;;47.83;18.90;;;-9.80;99.90;;;;;;4139637;28;20042;-59
2022/01/13 02:12:36;;;;;;;46.03;18.35;;;-9.80;99.90;;;;;;4139679;28;20536;-61
2022/01/13 02:14:57;;;;;;;49.55;21.05;;;-9.90;99.90;;;;;;4139650;28;20446;-61
2022/01/13 02:17:08;;;;;;;54.47;19.98;;;-9.80;99.90;;;;;;4138848;28;20084;-61
2022/01/13 02:19:10;;;;;;;53.17;21.15;;;-9.80;99.90;;;;;;4139510;28;20054;-58
2022/01/13 02:21:13;;;;;;;47.33;18.77;;;-9.80;99.90;;;;;;4139920;28;20060;-59
2022/01/13 02:23:31;;;;;;;51.20;21.33;;;-9.80;99.90;;;;;;4139752;28;20050;-60
2022/01/13 02:25:32;;;;;;;52.75;20.35;;;-9.80;99.90;;;;;;4139181;28;20034;-59
2022/01/13 02:27:33;;;;;;;49.03;19.20;;;-9.80;99.90;;;;;;4139619;28;20076;-60
2022/01/13 02:29:35;;;;;;;47.85;18.40;;;-9.80;99.90;;;;;;4139896;28;20095;-59
2022/01/13 02:31:36;;;;;;;50.55;19.13;;;-9.90;99.90;;;;;;4139509;28;20045;-60
2022/01/13 02:33:40;;;;;;;45.90;17.20;;;-9.90;99.90;;;;;;4137987;28;20096;-57
2022/01/13 02:35:41;;;;;;;44.20;17.30;;;-9.90;99.90;;;;;;4144449;28;20083;-56
2022/01/13 02:37:42;;;;;;;43.20;16.90;;;-9.90;99.90;;;;;;4144711;28;20812;-59
2022/01/13 02:39:43;;;;;;;40.72;15.80;;;-9.90;99.90;;;;;;4144954;28;20045;-60
2022/01/13 02:41:45;;;;;;;42.13;16.15;;;-9.90;99.90;;;;;;4145343;28;20038;-56
2022/01/13 02:43:47;;;;;;;43.63;15.45;;;-9.90;99.90;;;;;;4144409;28;20723;-57
2022/01/13 02:46:18;;;;;;;34.67;13.73;;;-9.90;99.90;;;;;;4145232;28;20143;-58
2022/01/13 02:48:27;;;;;;;32.17;15.70;;;-9.90;99.90;;;;;;4144035;28;20033;-59
2022/01/13 02:50:29;;;;;;;34.10;13.80;;;-9.90;99.90;;;;;;4145269;28;20395;-59
2022/01/13 02:52:30;;;;;;;35.38;14.55;;;-9.80;99.90;;;;;;4144273;28;20080;-58
2022/01/13 02:54:31;;;;;;;32.17;15.02;;;-9.80;99.90;;;;;;4145000;28;20632;-54
2022/01/13 02:56:33;;;;;;;35.95;13.70;;;-9.80;99.90;;;;;;4144607;28;20133;-56
2022/01/13 02:58:35;;;;;;;34.22;13.63;;;-9.80;99.90;;;;;;4144824;28;20615;-59
2022/01/13 03:00:36;;;;;;;42.47;15.38;;;-9.80;99.90;;;;;;4144400;28;20030;-59
2022/01/13 03:02:37;;;;;;;34.50;15.52;;;-9.90;99.90;;;;;;4144640;28;20038;-59
2022/01/13 03:04:45;;;;;;;40.55;16.17;;;-9.90;99.90;;;;;;4144258;28;20088;-55
2022/01/13 03:06:47;;;;;;;37.30;15.45;;;-10.00;99.90;;;;;;4144819;28;20153;-56
2022/01/13 03:08:50;;;;;;;39.20;16.98;;;-10.00;99.90;;;;;;4144421;28;20033;-58
2022/01/13 03:10:51;;;;;;;40.45;16.30;;;-10.10;99.90;;;;;;4144740;28;20095;-59
2022/01/13 03:12:52;;;;;;;43.60;15.93;;;-10.20;99.90;;;;;;4144346;28;20434;-59
2022/01/13 03:14:54;;;;;;;41.33;16.00;;;-10.20;99.90;;;;;;4144724;28;20885;-59
2022/01/13 03:16:55;;;;;;;42.78;16.90;;;-10.30;99.90;;;;;;4144166;28;20049;-58
2022/01/13 03:18:56;;;;;;;40.65;17.52;;;-10.30;99.90;;;;;;4144603;28;20111;-58
2022/01/13 03:20:57;;;;;;;40.03;16.63;;;-10.30;99.90;;;;;;4144928;28;20441;-56
2022/01/13 03:22:59;;;;;;;44.75;16.35;;;-10.30;99.90;;;;;;4144478;28;20034;-59
2022/01/13 03:25:00;;;;;;;44.65;17.38;;;-10.40;99.90;;;;;;4144698;28;20565;-61
2022/01/13 03:27:02;;;;;;;43.30;16.60;;;-10.40;99.90;;;;;;4144349;28;20045;-57
2022/01/13 03:29:15;;;;;;;44.17;17.17;;;-10.40;99.90;;;;;;4145252;28;20080;-53
2022/01/13 03:31:18;;;;;;;41.35;16.35;;;-10.40;99.90;;;;;;4144144;28;20371;-57
2022/01/13 03:33:22;;;;;;;38.17;16.52;;;-10.40;99.90;;;;;;4144661;28;20038;-57
2022/01/13 03:35:23;;;;;;;43.25;16.48;;;-10.40;99.90;;;;;;4144714;28;20088;-59
2022/01/13 03:37:25;;;;;;;38.60;16.60;;;-10.40;99.90;;;;;;4144872;28;20045;-58
2022/01/13 03:39:26;;;;;;;51.55;18.00;;;-10.40;99.90;;;;;;4144007;28;20041;-55
2022/01/13 03:41:27;;;;;;;40.78;15.73;;;-10.40;99.90;;;;;;4144421;28;20088;-55
2022/01/13 03:43:28;;;;;;;36.65;14.88;;;-10.40;99.90;;;;;;4143959;28;20135;-57
2022/01/13 03:45:30;;;;;;;44.78;15.77;;;-10.40;99.90;;;;;;4144269;28;20551;-57
2022/01/13 03:47:31;;;;;;;43.92;15.90;;;-10.40;99.90;;;;;;4140341;28;20034;-58
2022/01/13 03:49:33;;;;;;;39.80;16.10;;;-10.30;99.90;;;;;;4141874;28;20491;-58
2022/01/13 03:51:57;;;;;;;43.50;14.95;;;-10.30;99.90;;;;;;4142383;28;20030;-58
2022/01/13 03:54:20;;;;;;;31.20;13.95;;;-10.30;99.90;;;;;;4141612;28;20537;-68
2022/01/13 03:56:43;;;;;;;36.28;13.38;;;-10.30;99.90;;;;;;4141912;28;20121;-58
2022/01/13 03:59:24;;;;;;;38.15;15.88;;;-10.40;99.90;;;;;;4142239;28;20147;-57
2022/01/13 04:01:43;;;;;;;;;;;-10.40;99.90;;;;;;4141779;28;20453;-55
2022/01/13 04:03:45;;;;;;;32.55;13.35;;;-10.50;99.90;;;;;;4142344;28;19921;-58
2022/01/13 04:06:08;;;;;;;36.55;15.25;;;-10.50;99.90;;;;;;4141221;28;20076;-56
2022/01/13 04:08:09;;;;;;;34.10;13.43;;;-10.50;99.90;;;;;;4141833;28;20088;-56
2022/01/13 04:10:29;;;;;;;31.13;13.57;;;-10.50;99.90;;;;;;4141014;28;20026;-59
2022/01/13 04:12:30;;;;;;;31.98;14.27;;;-10.50;99.90;;;;;;4140954;28;20041;-57
2022/01/13 04:14:42;;;;;;;36.25;13.43;;;-10.40;99.90;;;;;;4141560;28;20022;-57
2022/01/13 04:16:43;;;;;;;31.80;13.07;;;-10.40;99.90;;;;;;4141573;28;20041;-66
2022/01/13 04:18:46;;;;;;;32.63;12.82;;;-10.30;99.90;;;;;;4141384;28;20046;-68
2022/01/13 04:20:48;;;;;;;31.70;11.95;;;-10.30;99.90;;;;;;4142210;28;20103;-53
2022/01/13 04:22:50;;;;;;;22.50;11.15;;;-10.30;99.90;;;;;;4140769;28;20545;-59
2022/01/13 04:24:52;;;;;;;26.08;11.18;;;-10.20;99.90;;;;;;4141170;28;20100;-59
2022/01/13 04:26:55;;;;;;;29.98;11.30;;;-10.10;99.90;;;;;;4141127;28;20564;-59
2022/01/13 04:29:16;;;;;;;31.42;10.93;;;-10.10;99.90;;;;;;4141840;28;20038;-59
2022/01/13 04:31:17;;;;;;;32.97;13.13;;;-10.00;99.90;;;;;;4140698;28;20100;-58
2022/01/13 04:33:19;;;;;;;36.85;14.18;;;-10.00;99.90;;;;;;4141100;28;20038;-57
2022/01/13 04:35:21;;;;;;;38.53;14.38;;;-10.00;99.90;;;;;;4141112;28;20030;-52
2022/01/13 04:37:24;;;;;;;33.35;12.48;;;-10.00;99.90;;;;;;4140693;28;20025;-59
2022/01/13 04:39:27;;;;;;;27.05;12.27;;;-10.00;99.90;;;;;;4140832;28;20068;-61
2022/01/13 04:41:35;;;;;;;33.85;13.60;;;-10.00;99.90;;;;;;4140684;28;20073;-57
2022/01/13 04:43:36;;;;;;;33.83;13.65;;;-10.00;99.90;;;;;;4141012;28;20585;-58
2022/01/13 04:45:37;;;;;;;42.10;12.85;;;-10.00;99.90;;;;;;4140529;28;20084;-58
2022/01/13 04:47:38;;;;;;;39.58;14.35;;;-9.90;99.90;;;;;;4140592;28;20120;-61
2022/01/13 04:49:41;;;;;;;41.50;15.05;;;-9.90;99.90;;;;;;4140991;28;20037;-61
2022/01/13 04:51:43;;;;;;;40.38;14.68;;;-9.80;99.90;;;;;;4141386;28;20045;-57
2022/01/13 04:53:44;;;;;;;28.63;13.20;;;-9.80;99.90;;;;;;4140667;28;20042;-66
2022/01/13 04:55:56;;;;;;;36.45;14.07;;;-9.80;99.90;;;;;;4140314;28;20099;-69
2022/01/13 04:57:59;;;;;;;39.42;14.43;;;-9.80;99.90;;;;;;4139680;28;20096;-64
2022/01/13 05:00:02;;;;;;;32.38;13.55;;;-9.70;99.90;;;;;;4140164;28;20438;-61
2022/01/13 05:02:03;;;;;;;35.22;13.48;;;-9.70;99.90;;;;;;4139648;28;20084;-60
2022/01/13 05:04:06;;;;;;;36.30;14.93;;;-9.70;99.90;;;;;;4140743;28;20120;-57
2022/01/13 05:06:07;;;;;;;42.85;15.02;;;-9.70;99.90;;;;;;4139696;28;20026;-59
2022/01/13 05:08:08;;;;;;;36.35;14.20;;;-9.70;99.90;;;;;;4140754;28;20042;-60
2022/01/13 05:10:10;;;;;;;38.95;15.65;;;-9.70;99.90;;;;;;4139886;28;20030;-59
2022/01/13 05:12:11;;;;;;;35.80;14.57;;;-9.70;99.90;;;;;;4140353;28;20049;-63
2022/01/13 05:14:12;;;;;;;48.78;15.95;;;-9.70;99.90;;;;;;4140063;28;20081;-58
2022/01/13 05:16:24;;;;;;;35.50;14.07;;;-9.70;99.90;;;;;;4139204;28;20037;-60
2022/01/13 05:21:04;;;;;;;36.03;14.38;;;-9.70;99.90;;;;;;4149449;28;20592;-57
2022/01/13 05:23:06;;;;;;;42.00;15.25;;;-9.60;99.90;;;;;;4139613;28;20096;-60
2022/01/13 05:25:09;;;;;;;43.47;15.52;;;-9.70;99.90;;;;;;4140134;28;20018;-59
2022/01/13 05:27:10;;;;;;;43.03;15.63;;;-9.70;99.90;;;;;;4139571;28;20084;-59
2022/01/13 05:29:17;;;;;;;48.40;16.85;;;-9.70;99.90;;;;;;4140485;28;20474;-58
2022/01/13 05:31:18;;;;;;;32.50;14.02;;;-9.80;99.90;;;;;;4138862;28;20095;-60
2022/01/13 05:33:19;;;;;;;36.83;14.93;;;-9.90;99.90;;;;;;4140015;28;20921;-57
2022/01/13 05:35:20;;;;;;;33.78;13.75;;;-10.00;99.90;;;;;;4140110;28;20034;-60
2022/01/13 05:37:21;;;;;;;33.58;12.95;;;-9.90;99.90;;;;;;4139881;28;20494;-59
2022/01/13 05:39:22;;;;;;;28.90;12.98;;;-9.90;99.90;;;;;;4139283;28;20907;-58
2022/01/13 05:41:23;;;;;;;34.78;13.18;;;-9.90;99.90;;;;;;4140035;28;20092;-60
2022/01/13 05:43:28;;;;;;;31.45;11.70;;;-9.80;99.90;;;;;;4139499;28;20049;-58
2022/01/13 05:45:30;;;;;;;32.03;12.93;;;-9.80;99.90;;;;;;4139348;28;20037;-59
2022/01/13 05:47:31;;;;;;;31.52;12.40;;;-9.80;99.90;;;;;;4140066;28;20452;-57
2022/01/13 05:49:32;;;;;;;38.28;12.27;;;-9.80;99.90;;;;;;4138880;28;20025;-61
2022/01/13 05:51:33;;;;;;;38.08;11.77;;;-9.70;99.90;;;;;;4137239;28;20152;-58
2022/01/13 05:53:35;;;;;;;30.08;12.18;;;-9.70;99.90;;;;;;4129138;28;20111;-58
2022/01/13 05:55:36;;;;;;;34.75;14.13;;;-9.70;99.90;;;;;;4139995;28;20034;-55
2022/01/13 05:57:39;;;;;;;30.30;12.45;;;-9.70;99.90;;;;;;4138483;28;20084;-57
2022/01/13 05:59:40;;;;;;;31.90;12.15;;;-9.80;99.90;;;;;;4139539;28;20485;-62
2022/01/13 06:01:45;;;;;;;33.47;12.07;;;-9.70;99.90;;;;;;4138534;28;20102;-53
2022/01/13 06:03:48;;;;;;;33.75;12.10;;;-9.70;99.90;;;;;;4139352;28;20046;-58
2022/01/13 06:05:50;;;;;;;30.35;10.65;;;-9.70;99.90;;;;;;4139227;28;20363;-57
2022/01/13 06:07:53;;;;;;;30.05;12.65;;;-9.70;99.90;;;;;;4138986;28;20061;-58
2022/01/13 06:09:54;;;;;;;53.28;20.00;;;-9.70;99.90;;;;;;4138294;28;20103;-58
2022/01/13 06:11:58;;;;;;;84.72;26.80;;;-9.80;99.90;;;;;;4139366;28;20415;-56
2022/01/13 06:13:59;;;;;;;83.65;26.50;;;-9.90;99.90;;;;;;4138874;28;20045;-57
2022/01/13 06:16:03;;;;;;;82.85;29.60;;;-10.00;99.90;;;;;;4139118;28;20115;-56
2022/01/13 06:18:14;;;;;;;89.10;34.03;;;-10.10;99.90;;;;;;4139053;28;20038;-57
2022/01/13 06:20:17;;;;;;;93.90;29.67;;;-10.10;99.90;;;;;;4139652;28;20026;-58
2022/01/13 06:22:18;;;;;;;79.35;29.45;;;-10.10;99.90;;;;;;4139973;28;20050;-58
2022/01/13 06:24:19;;;;;;;83.60;30.77;;;-10.10;99.90;;;;;;4139142;28;20041;-58
2022/01/13 06:26:23;;;;;;;90.72;32.42;;;-10.10;99.90;;;;;;4139554;28;20034;-57
2022/01/13 06:28:24;;;;;;;88.47;34.63;;;-10.10;99.90;;;;;;4138727;28;20453;-58
2022/01/13 06:30:25;;;;;;;93.88;32.60;;;-10.00;99.90;;;;;;4139263;28;20129;-57
2022/01/13 06:32:27;;;;;;;91.18;33.92;;;-10.00;99.90;;;;;;4138393;28;20178;-58
2022/01/13 06:34:28;;;;;;;98.63;35.20;;;-9.90;99.90;;;;;;4138499;28;20095;-57
2022/01/13 06:36:31;;;;;;;98.13;35.53;;;-9.70;99.90;;;;;;4138441;28;20564;-58
2022/01/13 06:38:32;;;;;;;94.60;34.90;;;-9.60;99.90;;;;;;4139824;28;20112;-60
2022/01/13 06:40:36;;;;;;;101.90;34.75;;;-9.50;99.90;;;;;;4139006;28;20124;-58
2022/01/13 06:42:38;;;;;;;92.15;33.22;;;-9.50;99.90;;;;;;4137579;28;20482;-59
2022/01/13 06:44:43;;;;;;;76.30;31.88;;;-9.30;99.90;;;;;;4138861;28;20544;-58
2022/01/13 06:46:44;;;;;;;89.88;33.08;;;-9.30;99.90;;;;;;4138863;28;20042;-59
2022/01/13 06:48:45;;;;;;;86.93;35.95;;;-9.30;99.90;;;;;;4138675;28;20425;-60
2022/01/13 06:50:46;;;;;;;91.18;35.10;;;-9.30;99.90;;;;;;4139359;28;20026;-56
2022/01/13 06:52:48;;;;;;;90.72;34.33;;;-9.40;99.90;;;;;;4139005;28;20470;-60
2022/01/13 06:54:51;;;;;;;82.53;31.80;;;-9.20;99.90;;;;;;4138729;28;20758;-58
2022/01/13 06:56:53;;;;;;;84.75;33.17;;;-9.10;99.90;;;;;;4138920;28;20441;-58
2022/01/13 06:58:55;;;;;;;85.22;32.65;;;-9.00;99.90;;;;;;4138559;28;20129;-60
2022/01/13 07:00:56;;;;;;;89.28;33.63;;;-9.00;99.90;;;;;;4138043;28;20030;-60
2022/01/13 07:02:59;;;;;;;91.70;33.67;;;-8.90;99.90;;;;;;4138612;28;20444;-65
2022/01/13 07:05:00;;;;;;;95.20;34.53;;;-8.80;99.90;;;;;;4139418;28;20046;-59
2022/01/13 07:07:01;;;;;;;91.80;33.95;;;-8.60;99.90;;;;;;4138414;28;20139;-57
2022/01/13 07:09:06;;;;;;;87.55;32.10;;;-8.40;99.90;;;;;;4138834;28;20042;-59
2022/01/13 07:11:07;;;;;;;76.03;32.20;;;-8.20;99.90;;;;;;4138857;28;20458;-59
2022/01/13 07:13:08;;;;;;;76.15;32.53;;;-8.00;99.90;;;;;;4137849;28;20038;-60
2022/01/13 07:15:12;;;;;;;73.68;30.58;;;-7.90;99.90;;;;;;4138441;28;20099;-60
2022/01/13 07:17:15;;;;;;;76.40;31.10;;;-7.90;99.90;;;;;;4138509;28;20112;-60
2022/01/13 07:19:16;;;;;;;76.20;31.17;;;-7.90;99.90;;;;;;4138889;28;20502;-55
2022/01/13 07:21:19;;;;;;;72.60;29.30;;;-7.90;99.90;;;;;;4140581;28;20037;-61
2022/01/13 07:23:20;;;;;;;71.60;27.70;;;-8.00;99.90;;;;;;4141689;28;20058;-59
2022/01/13 07:25:21;;;;;;;80.32;32.60;;;-8.10;99.90;;;;;;4141554;28;20030;-58
2022/01/13 07:27:22;;;;;;;78.53;30.13;;;-8.30;99.90;;;;;;4142425;28;20085;-59
2022/01/13 07:29:25;;;;;;;82.70;29.98;;;-8.50;99.90;;;;;;4141448;28;20131;-58
2022/01/13 07:31:28;;;;;;;66.22;28.70;;;-8.50;99.90;;;;;;4141722;28;20478;-58
2022/01/13 07:33:29;;;;;;;72.95;28.77;;;-8.50;99.90;;;;;;4141822;28;20057;-65
2022/01/13 07:35:30;;;;;;;73.40;28.30;;;-8.50;99.90;;;;;;4142211;28;20092;-57
2022/01/13 07:37:31;;;;;;;69.80;26.42;;;-8.40;99.90;;;;;;4141070;28;20026;-59
2022/01/13 07:39:32;;;;;;;73.03;24.08;;;-8.40;99.90;;;;;;4141788;28;20042;-60
2022/01/13 07:41:36;;;;;;;57.72;22.58;;;-8.40;99.90;;;;;;4141432;28;20431;-58
2022/01/13 07:43:41;;;;;;;63.47;20.67;;;-8.50;99.90;;;;;;4141311;28;20161;-60
2022/01/13 07:45:42;;;;;;;59.40;23.23;;;-8.50;99.90;;;;;;4141183;28;20049;-59
2022/01/13 07:47:43;;;;;;;61.00;20.33;;;-8.50;99.90;;;;;;4141413;28;20111;-61
2022/01/13 07:49:44;;;;;;;44.88;19.08;;;-8.50;99.90;;;;;;4141191;28;20980;-57
2022/01/13 07:51:45;;;;;;;52.13;21.00;;;-8.50;99.90;;;;;;4142197;28;20540;-60
2022/01/13 07:53:47;;;;;;;55.47;19.88;;;-8.50;99.90;;;;;;4141437;28;20030;-61
2022/01/13 07:55:49;;;;;;;56.85;21.20;;;-8.60;99.90;;;;;;4141709;28;20041;-59
2022/01/13 07:57:50;;;;;;;39.72;17.95;;;-8.50;99.90;;;;;;4141129;28;20096;-58
2022/01/13 07:59:52;;;;;;;49.30;17.98;;;-8.40;99.90;;;;;;4139514;28;20038;-59
2022/01/13 08:01:57;;;;;;;47.65;18.02;;;-8.30;99.90;;;;;;4141115;28;20580;-58
2022/01/13 08:03:58;;;;;;;52.28;18.77;;;-8.30;99.90;;;;;;4140399;28;20108;-58
2022/01/13 08:06:01;;;;;;;45.92;19.02;;;-8.20;99.90;;;;;;4141953;28;20088;-60
2022/01/13 08:08:02;;;;;;;45.38;18.05;;;-8.20;99.90;;;;;;4140799;28;20052;-56
2022/01/13 08:10:04;;;;;;;42.47;15.60;;;-8.10;99.90;;;;;;4141757;28;20133;-58
2022/01/13 08:12:06;;;;;;;45.17;18.23;;;-8.00;99.90;;;;;;4140008;28;20058;-59
2022/01/13 08:14:07;;;;;;;41.72;17.88;;;-8.00;99.90;;;;;;4141647;28;20584;-57
2022/01/13 08:16:10;;;;;;;44.65;17.02;;;-7.90;99.90;;;;;;4140364;28;20030;-58
2022/01/13 08:20:32;;;;;;;42.45;18.60;;;-7.60;99.90;;;;;;4140990;28;20103;-57
2022/01/13 08:22:33;;;;;;;47.65;18.65;;;-7.50;99.90;;;;;;4141463;28;20030;-58
2022/01/13 08:24:35;;;;;;;40.30;17.38;;;-7.30;99.90;;;;;;4140530;28;20096;-65
2022/01/13 08:26:36;;;;;;;41.75;16.95;;;-7.20;99.90;;;;;;4140737;28;20042;-59
2022/01/13 08:28:37;;;;;;;43.22;17.48;;;-7.10;99.90;;;;;;4138614;28;20042;-59
2022/01/13 08:30:38;;;;;;;51.65;19.13;;;-6.90;99.90;;;;;;4140597;28;20038;-58
2022/01/13 08:32:39;;;;;;;47.03;17.65;;;-6.90;99.90;;;;;;4139613;28;20046;-56
2022/01/13 08:34:40;;;;;;;44.75;17.58;;;-6.90;99.90;;;;;;4140764;28;20033;-58
2022/01/13 08:36:45;;;;;;;53.15;21.08;;;-6.80;99.90;;;;;;4140720;28;20072;-61
2022/01/13 08:38:49;;;;;;;50.85;21.05;;;-6.70;99.90;;;;;;4140710;28;20080;-60
2022/01/13 08:40:56;;;;;;;67.47;23.27;;;-6.90;99.90;;;;;;4140414;28;20030;-59
2022/01/13 08:42:57;;;;;;;69.18;24.08;;;-6.90;99.90;;;;;;4140251;28;20151;-62
2022/01/13 08:44:59;;;;;;;69.00;25.77;;;-7.00;99.90;;;;;;4140923;28;20046;-61
2022/01/13 08:47:00;;;;;;;63.78;24.45;;;-7.10;99.90;;;;;;4139995;28;20052;-59
2022/01/13 08:49:02;;;;;;;80.78;29.40;;;-7.10;99.90;;;;;;4140535;28;20446;-58
2022/01/13 08:51:04;;;;;;;83.07;28.42;;;-7.10;99.90;;;;;;4140085;28;20069;-58
2022/01/13 08:53:06;;;;;;;68.57;26.38;;;-7.20;99.90;;;;;;4141081;28;20111;-58
2022/01/13 08:55:07;;;;;;;73.10;26.40;;;-7.00;99.90;;;;;;4140249;28;20474;-59
2022/01/13 08:57:08;;;;;;;73.63;27.48;;;-6.80;99.90;;;;;;4140017;28;20030;-62
2022/01/13 08:59:10;;;;;;;70.55;26.27;;;-6.70;99.90;;;;;;4140219;28;20812;-58
2022/01/13 09:01:11;;;;;;;83.72;29.75;;;-6.70;99.90;;;;;;4138887;28;20072;-67
2022/01/13 09:03:14;;;;;;;81.47;27.42;;;-6.40;99.90;;;;;;4140015;28;20441;-59
2022/01/13 09:05:18;;;;;;;68.85;26.50;;;-6.10;99.90;;;;;;4140060;28;20108;-60
2022/01/13 09:07:19;;;;;;;67.40;25.15;;;-5.70;99.90;;;;;;4138878;28;20483;-58
2022/01/13 09:09:20;;;;;;;64.65;25.35;;;-5.60;99.90;;;;;;4140169;28;20033;-58
2022/01/13 09:11:22;;;;;;;69.97;28.13;;;-5.60;99.90;;;;;;4140001;28;20041;-58
2022/01/13 09:13:23;;;;;;;81.90;27.95;;;-5.60;99.90;;;;;;4139912;28;20021;-62
2022/01/13 09:15:34;;;;;;;67.82;28.77;;;-5.60;99.90;;;;;;4139994;28;20032;-60
2022/01/13 09:17:38;;;;;;;65.07;26.50;;;-5.40;99.90;;;;;;4139108;28;20096;-58
2022/01/13 09:19:42;;;;;;;72.35;27.08;;;-5.30;99.90;;;;;;4140586;28;20088;-59
2022/01/13 09:21:45;;;;;;;72.72;28.20;;;-5.30;99.90;;;;;;4140029;28;20088;-59
2022/01/13 09:23:46;;;;;;;58.72;26.35;;;-5.30;99.90;;;;;;4140156;28;20561;-61
2022/01/13 09:25:47;;;;;;;76.00;27.15;;;-5.20;99.90;;;;;;4139276;28;20088;-63
2022/01/13 09:27:49;;;;;;;92.55;31.42;;;-4.90;99.90;;;;;;4140304;28;20026;-59
2022/01/13 09:29:50;;;;;;;83.13;30.80;;;-4.60;99.90;;;;;;4139021;28;20041;-59
2022/01/13 09:31:51;;;;;;;60.55;26.92;;;-4.50;99.90;;;;;;4139644;28;20030;-60
2022/01/13 09:33:53;;;;;;;85.20;31.08;;;-4.60;99.90;;;;;;4139572;28;20112;-58
2022/01/13 09:35:54;;;;;;;70.28;30.40;;;-4.60;99.90;;;;;;4140057;28;20022;-58
2022/01/13 09:37:55;;;;;;;76.50;28.92;;;-4.70;99.90;;;;;;4139498;28;20522;-58
2022/01/13 09:39:57;;;;;;;68.43;29.38;;;-4.70;99.90;;;;;;4139286;28;20046;-55
2022/01/13 09:42:00;;;;;;;69.38;29.63;;;-4.80;99.90;;;;;;4140041;28;20087;-58
2022/01/13 09:44:04;;;;;;;67.35;26.75;;;-4.90;99.90;;;;;;4138882;28;20041;-60
2022/01/13 09:46:05;;;;;;;64.80;27.63;;;-4.90;99.90;;;;;;4139499;28;20080;-61
2022/01/13 09:48:06;;;;;;;75.20;28.65;;;-4.90;99.90;;;;;;4139677;28;20026;-61
2022/01/13 09:50:12;;;;;;;84.35;27.90;;;-4.80;99.90;;;;;;4138109;28;20096;-60
2022/01/13 09:52:13;;;;;;;70.00;25.63;;;-4.80;99.90;;;;;;4140135;28;20034;-64
2022/01/13 09:54:16;;;;;;;80.68;27.83;;;-4.80;99.90;;;;;;4139888;28;20060;-60
2022/01/13 09:56:17;;;;;;;66.82;24.92;;;-4.70;99.90;;;;;;4139172;28;20442;-60
2022/01/13 09:58:18;;;;;;;59.85;26.58;;;-4.80;99.90;;;;;;4139447;28;20474;-59
2022/01/13 10:00:24;;;;;;;65.45;24.88;;;-4.70;99.90;;;;;;4138499;28;20402;-63
2022/01/13 10:02:29;;;;;;;61.30;25.25;;;-4.60;99.90;;;;;;4139551;28;20061;-59
2022/01/13 10:04:48;;;;;;;63.78;23.42;;;-4.50;99.90;;;;;;4138969;28;20046;-58
2022/01/13 10:06:49;;;;;;;64.13;25.55;;;-4.50;99.90;;;;;;4139222;28;20056;-59
2022/01/13 10:08:54;;;;;;;54.17;23.40;;;-4.60;99.90;;;;;;4138586;28;20132;-59
2022/01/13 10:10:55;;;;;;;67.82;26.20;;;-4.50;99.90;;;;;;4139579;28;20095;-59
2022/01/13 10:13:04;;;;;;;63.78;26.08;;;-4.60;99.90;;;;;;4138545;28;20774;-59
2022/01/13 10:17:18;;;;;;;61.08;24.38;;;-4.70;99.90;;;;;;4138617;28;20445;-61
2022/01/13 10:19:30;;;;;;;67.35;25.48;;;-4.70;99.90;;;;;;4139250;28;20073;-65
2022/01/13 10:21:31;;;;;;;92.07;29.30;;;-4.70;99.90;;;;;;4138957;28;20062;-60
2022/01/13 10:23:33;;;;;;;63.42;28.05;;;-4.60;99.90;;;;;;4139249;28;20033;-60
2022/01/13 10:25:43;;;;;;;63.08;28.40;;;-4.70;99.90;;;;;;4139025;28;20089;-66
2022/01/13 10:27:44;;;;;;;74.25;28.00;;;-4.70;99.90;;;;;;4139106;28;20078;-60
2022/01/13 10:29:47;;;;;;;68.07;29.40;;;-4.60;99.90;;;;;;4139282;28;20034;-60
2022/01/13 10:31:50;;;;;;;65.90;27.77;;;-4.50;99.90;;;;;;4138968;28;20092;-61
2022/01/13 10:33:52;;;;;;;73.93;28.20;;;-4.50;99.90;;;;;;4139055;28;20030;-60
2022/01/13 10:36:06;;;;;;;64.53;28.35;;;-4.60;99.90;;;;;;4138472;28;20513;-59